Time;durP1;ratioP1;P1;durP2;ratioP2;P2;SDS_P1;SDS_P2;PMS_P1;PMS_P2;Temp;Humidity;BMP_temperature;BMP_pressure;BME280_temperature;BME280_humidity;BME280_pressure;Samples;Min_cycle;Max_cycle;Signal;HPM_P1;HPM_P2
2022/11/26 00:00:28;;;;;;;278.12;62.90;;;;;;;6.02;100.00;99349.41;4230513;33;20038;-72
2022/11/26 00:03:15;;;;;;;253.95;55.85;;;;;;;5.77;100.00;99352.72;4260773;33;20075;-71
2022/11/26 00:05:45;;;;;;;315.08;58.60;;;;;;;5.76;100.00;99348.44;4266723;33;20067;-71
2022/11/26 00:08:27;;;;;;;416.50;62.15;;;;;;;5.70;100.00;99346.59;4256857;33;20092;-71
2022/11/26 00:10:54;;;;;;;173.55;45.97;;;;;;;5.74;100.00;99357.69;4257582;33;20053;-71
2022/11/26 00:13:26;;;;;;;256.45;46.72;;;;;;;5.50;100.00;99351.97;4243125;33;20058;-71
2022/11/26 00:15:53;;;;;;;;;;;;;;;5.53;100.00;99329.38;4244870;33;20503;-71
2022/11/26 00:18:22;;;;;;;167.15;38.50;;;;;;;5.74;100.00;99347.81;4242994;33;20039;-70
2022/11/26 00:20:58;;;;;;;180.43;42.70;;;;;;;5.53;100.00;99350.75;4243970;33;20058;-72
2022/11/26 00:23:26;;;;;;;162.45;41.92;;;;;;;5.29;100.00;99318.34;4240979;33;20089;-71
2022/11/26 00:25:56;;;;;;;345.20;50.17;;;;;;;5.42;100.00;99363.69;4244040;33;20135;-71
2022/11/26 00:28:25;;;;;;;249.73;42.50;;;;;;;5.38;100.00;99357.16;4264090;33;20057;-71
2022/11/26 00:30:54;;;;;;;181.65;38.97;;;;;;;5.16;100.00;99359.22;4256849;33;20076;-72
2022/11/26 00:33:22;;;;;;;319.87;48.03;;;;;;;5.15;100.00;99354.09;4252120;33;20076;-72
2022/11/26 00:35:52;;;;;;;183.12;41.72;;;;;;;5.23;100.00;99365.41;4251859;33;20060;-72
2022/11/26 00:38:20;;;;;;;274.77;49.25;;;;;;;5.25;100.00;99365.19;4248196;33;20023;-70
2022/11/26 00:40:47;;;;;;;176.15;45.83;;;;;;;5.25;100.00;99365.19;4236141;33;20453;-71
2022/11/26 00:43:15;;;;;;;223.45;48.38;;;;;;;5.18;100.00;99369.69;4237726;33;20429;-72
2022/11/26 00:45:42;;;;;;;256.75;50.47;;;;;;;5.32;100.00;99387.34;4265853;33;20458;-72
2022/11/26 00:48:08;;;;;;;212.60;47.88;;;;;;;5.35;100.00;99376.25;4265531;33;20034;-70
2022/11/26 00:50:48;;;;;;;471.08;50.78;;;;;;;5.28;100.00;99380.75;4264445;33;20041;-72
2022/11/26 00:53:19;;;;;;;196.10;42.38;;;;;;;5.37;100.00;99373.38;4265762;33;20025;-72
2022/11/26 00:55:48;;;;;;;247.00;41.53;;;;;;;5.19;100.00;99344.66;4259405;33;20050;-72
2022/11/26 00:58:28;;;;;;;181.87;37.15;;;;;;;5.17;100.00;99344.84;4251735;33;20038;-70
2022/11/26 03:02:32;;;;;;;135.07;34.40;;;;;;;4.75;100.00;99394.09;4335768;28;20088;-72
2022/11/26 03:05:02;;;;;;;135.48;36.67;;;;;;;4.64;100.00;99401.69;4283166;33;20046;-70
2022/11/26 03:07:36;;;;;;;176.82;37.67;;;;;;;4.52;100.00;99385.44;4283353;33;20479;-72
2022/11/26 03:10:03;;;;;;;142.40;36.00;;;;;;;4.59;100.00;99409.44;4284405;33;20067;-72
2022/11/26 03:12:30;;;;;;;108.47;31.52;;;;;;;4.75;100.00;99412.78;4284362;33;20136;-72
2022/11/26 03:14:56;;;;;;;183.98;37.25;;;;;;;4.91;100.00;99407.03;4281566;33;20045;-71
2022/11/26 03:17:23;;;;;;;150.90;36.47;;;;;;;4.85;100.00;99403.34;4253191;33;20222;-71
2022/11/26 03:19:50;;;;;;;165.45;38.17;;;;;;;4.61;100.00;99409.25;4253331;33;20415;-71
2022/11/26 03:22:16;;;;;;;212.30;41.42;;;;;;;4.34;100.00;99395.81;4252725;33;20069;-71
2022/11/26 03:24:43;;;;;;;138.23;34.63;;;;;;;4.21;100.00;99401.94;4252980;33;20034;-72
2022/11/26 03:27:09;;;;;;;118.87;35.28;;;;;;;4.46;100.00;99409.41;4250639;33;20067;-71
2022/11/26 03:29:35;;;;;;;126.03;34.63;;;;;;;4.54;100.00;99411.91;4253312;33;20766;-71
2022/11/26 03:32:02;;;;;;;162.65;38.80;;;;;;;4.64;100.00;99407.00;4252912;33;20022;-71
2022/11/26 03:34:29;;;;;;;121.25;32.20;;;;;;;4.34;100.00;99356.69;4224531;34;20060;-71
2022/11/26 03:36:55;;;;;;;171.02;36.35;;;;;;;4.97;100.00;99421.44;4223862;34;20056;-69
2022/11/26 03:39:22;;;;;;;120.22;35.17;;;;;;;4.81;100.00;99382.63;4230795;33;20049;-72
2022/11/26 03:41:48;;;;;;;182.70;35.30;;;;;;;5.11;100.00;99419.59;4238490;33;20050;-72
2022/11/26 03:44:14;;;;;;;121.90;28.20;;;;;;;4.88;100.00;99428.78;4238731;33;20050;-72
2022/11/26 03:46:41;;;;;;;112.15;28.98;;;;;;;4.57;100.00;99435.50;4238012;33;20525;-71
2022/11/26 03:49:07;;;;;;;120.28;28.80;;;;;;;4.10;100.00;99410.50;4235975;33;20064;-69
2022/11/26 03:51:34;;;;;;;89.00;24.35;;;;;;;4.09;100.00;99440.84;4242318;33;20358;-72
2022/11/26 03:54:06;;;;;;;81.18;22.52;;;;;;;4.06;100.00;99441.25;4252810;33;20050;-72
2022/11/26 03:56:33;;;;;;;85.12;24.42;;;;;;;3.90;100.00;99421.87;4252506;33;20038;-71
2022/11/26 03:58:59;;;;;;;85.87;24.27;;;;;;;4.03;100.00;99438.97;4250824;33;20063;-71
2022/11/26 04:01:26;;;;;;;78.93;23.42;;;;;;;4.10;100.00;99437.16;4258703;33;20050;-72
2022/11/26 04:03:53;;;;;;;81.18;25.52;;;;;;;4.15;100.00;99432.06;4266436;33;20123;-71
2022/11/26 04:06:19;;;;;;;103.80;24.63;;;;;;;4.23;100.00;99444.37;4254419;33;20042;-72
2022/11/26 04:08:46;;;;;;;91.65;27.40;;;;;;;4.24;100.00;99438.84;4252200;33;20035;-72
2022/11/26 04:11:19;;;;;;;75.62;24.85;;;;;;;4.17;100.00;99417.50;4250564;33;20388;-72
2022/11/26 04:13:45;;;;;;;77.40;27.20;;;;;;;4.23;100.00;99399.91;4252510;33;20046;-72
2022/11/26 04:16:12;;;;;;;90.12;25.75;;;;;;;4.19;100.00;99398.66;4252376;33;20103;-72
2022/11/26 04:18:38;;;;;;;90.05;25.27;;;;;;;4.44;100.00;99438.13;4264580;33;20052;-72
2022/11/26 04:21:06;;;;;;;75.07;25.70;;;;;;;4.36;100.00;99437.28;4266043;33;20401;-72
2022/11/26 04:23:34;;;;;;;74.68;24.37;;;;;;;4.51;100.00;99442.44;4264364;33;20075;-73
2022/11/26 04:26:00;;;;;;;96.28;27.35;;;;;;;4.39;100.00;99437.87;4266262;33;20994;-72
2022/11/26 04:28:27;;;;;;;98.68;30.17;;;;;;;4.19;100.00;99452.78;4265036;33;20046;-71
2022/11/26 04:30:53;;;;;;;100.35;29.90;;;;;;;4.04;100.00;99425.44;4265956;33;20467;-72
2022/11/26 04:33:20;;;;;;;86.30;27.02;;;;;;;4.16;100.00;99413.22;4278143;33;20080;-71
2022/11/26 04:35:46;;;;;;;92.62;26.58;;;;;;;4.39;100.00;99446.72;4282780;33;20506;-73
2022/11/26 04:38:13;;;;;;;76.57;25.27;;;;;;;4.46;100.00;99430.75;4282339;33;20067;-73
2022/11/26 04:40:39;;;;;;;90.55;27.33;;;;;;;4.44;100.00;99414.13;4281122;33;20053;-72
2022/11/26 04:43:06;;;;;;;87.88;26.73;;;;;;;4.46;100.00;99422.75;4281583;33;20041;-71
2022/11/26 04:45:32;;;;;;;83.70;27.23;;;;;;;4.56;100.00;99457.84;4281972;33;20037;-72
2022/11/26 04:47:59;;;;;;;102.22;29.50;;;;;;;4.54;100.00;99468.72;4282502;33;20056;-73
2022/11/26 04:50:25;;;;;;;79.12;26.45;;;;;;;4.70;100.00;99467.53;4282529;33;20079;-73
2022/11/26 04:52:51;;;;;;;79.28;28.05;;;;;;;4.70;100.00;99461.38;4282211;33;20075;-72
2022/11/26 04:55:18;;;;;;;112.47;29.52;;;;;;;4.88;100.00;99476.81;4279670;33;20037;-71
2022/11/26 04:57:47;;;;;;;99.15;31.50;;;;;;;4.96;100.00;99479.31;4259881;33;20072;-72
2022/11/26 05:00:16;;;;;;;125.93;31.95;;;;;;;4.79;100.00;99473.53;4266099;33;20076;-72
2022/11/26 05:02:43;;;;;;;99.93;28.85;;;;;;;4.77;100.00;99474.75;4264781;33;20063;-73
2022/11/26 05:05:09;;;;;;;95.47;30.73;;;;;;;4.80;100.00;99469.00;4265554;33;20071;-70
2022/11/26 05:07:36;;;;;;;106.70;31.33;;;;;;;4.72;100.00;99452.19;4264283;33;20060;-72
2022/11/26 05:10:04;;;;;;;105.57;30.08;;;;;;;4.93;100.00;99482.41;4265836;33;20064;-73
2022/11/26 05:12:30;;;;;;;88.15;30.70;;;;;;;4.87;100.00;99480.53;4265691;33;20077;-72
2022/11/26 05:14:57;;;;;;;118.95;32.90;;;;;;;4.84;100.00;99488.94;4265809;33;20041;-72
2022/11/26 05:17:23;;;;;;;150.75;32.88;;;;;;;4.85;100.00;99478.06;4250346;33;20042;-71
2022/11/26 05:19:49;;;;;;;89.60;26.58;;;;;;;4.80;100.00;99483.16;4254398;33;20041;-72
2022/11/26 05:22:16;;;;;;;105.50;31.33;;;;;;;4.60;100.00;99496.44;4254023;33;20206;-72
2022/11/26 05:24:42;;;;;;;109.70;30.77;;;;;;;4.52;100.00;99500.09;4254721;33;20073;-72
2022/11/26 05:27:09;;;;;;;103.22;29.77;;;;;;;4.24;100.00;99480.69;4254498;33;20049;-72
2022/11/26 05:29:35;;;;;;;105.63;30.35;;;;;;;4.16;100.00;99463.00;4252226;33;20555;-70
2022/11/26 05:32:02;;;;;;;111.72;29.27;;;;;;;4.20;100.00;99474.94;4253410;33;20038;-72
2022/11/26 05:34:28;;;;;;;110.37;32.92;;;;;;;4.50;100.00;99511.97;4254583;33;20063;-73
2022/11/26 05:36:55;;;;;;;130.50;33.03;;;;;;;4.58;100.00;99509.16;4253779;33;20034;-72
2022/11/26 05:39:21;;;;;;;159.80;37.28;;;;;;;4.49;100.00;99489.03;4254365;33;20376;-71
2022/11/26 05:41:47;;;;;;;185.32;34.75;;;;;;;4.60;100.00;99512.44;4238870;33;20068;-71
2022/11/26 05:44:14;;;;;;;183.27;33.97;;;;;;;4.55;100.00;99515.72;4240291;33;20160;-71
2022/11/26 05:46:42;;;;;;;182.80;32.35;;;;;;;4.64;100.00;99523.53;4239590;33;20090;-72
2022/11/26 05:49:08;;;;;;;224.68;34.15;;;;;;;4.58;100.00;99519.84;4251328;33;20039;-71
2022/11/26 05:51:35;;;;;;;156.30;28.83;;;;;;;4.51;100.00;99518.97;4253371;33;20038;-70
2022/11/26 05:54:01;;;;;;;119.80;28.75;;;;;;;4.45;100.00;99503.75;4252979;33;20037;-71
2022/11/26 05:56:28;;;;;;;190.95;31.35;;;;;;;4.31;100.00;99493.03;4266977;33;20065;-73
2022/11/26 05:58:54;;;;;;;159.73;29.55;;;;;;;4.41;100.00;99518.53;4270354;33;20416;-72
2022/11/26 06:01:21;;;;;;;205.77;36.13;;;;;;;4.34;100.00;99529.13;4254034;33;20118;-72
2022/11/26 06:03:47;;;;;;;134.02;27.00;;;;;;;4.07;100.00;99485.50;4253257;33;20417;-70
2022/11/26 06:06:14;;;;;;;157.52;36.65;;;;;;;4.30;100.00;99526.03;4251597;33;20404;-72
2022/11/26 06:08:40;;;;;;;103.03;30.67;;;;;;;4.40;100.00;99532.88;4253557;33;20396;-71
2022/11/26 06:11:10;;;;;;;128.23;29.87;;;;;;;4.43;100.00;99522.63;4253407;33;20060;-71
2022/11/26 06:13:36;;;;;;;241.32;37.88;;;;;;;4.48;100.00;99533.53;4253557;33;20445;-71
2022/11/26 06:16:03;;;;;;;145.73;33.78;;;;;;;4.46;100.00;99537.41;4252363;33;20072;-71
2022/11/26 06:18:29;;;;;;;144.40;32.15;;;;;;;4.40;100.00;99551.53;4252994;33;20042;-72
2022/11/26 06:21:00;;;;;;;168.68;35.88;;;;;;;4.49;100.00;99547.69;4253323;33;20050;-72
2022/11/26 06:23:27;;;;;;;138.57;39.47;;;;;;;4.21;100.00;99523.72;4253371;33;20418;-71
2022/11/26 06:25:54;;;;;;;154.85;40.65;;;;;;;4.32;100.00;99558.69;4239183;33;20068;-71
2022/11/26 06:28:20;;;;;;;118.35;34.83;;;;;;;4.28;100.00;99546.75;4237752;33;20111;-70
2022/11/26 06:30:47;;;;;;;123.30;29.40;;;;;;;4.29;100.00;99559.06;4244606;33;20342;-70
2022/11/26 06:33:14;;;;;;;122.40;29.45;;;;;;;4.32;100.00;99564.00;4224584;34;20467;-70
2022/11/26 06:35:41;;;;;;;136.40;28.58;;;;;;;4.18;100.00;99524.97;4224371;34;20127;-71
2022/11/26 06:38:07;;;;;;;151.18;28.20;;;;;;;4.29;100.00;99532.41;4223833;34;20035;-70
2022/11/26 06:40:34;;;;;;;144.93;30.27;;;;;;;4.10;100.00;99549.06;4219955;34;20054;-70
2022/11/26 06:43:03;;;;;;;145.12;30.90;;;;;;;4.12;100.00;99568.38;4218817;34;20650;-70
2022/11/26 06:45:37;;;;;;;101.00;26.65;;;;;;;4.10;100.00;99575.72;4212672;34;20075;-70
2022/11/26 06:48:07;;;;;;;104.12;28.85;;;;;;;4.19;100.00;99579.91;4222281;34;20065;-71
2022/11/26 06:50:33;;;;;;;139.80;27.50;;;;;;;4.11;100.00;99548.06;4221583;34;20080;-71
2022/11/26 06:52:59;;;;;;;90.10;27.65;;;;;;;4.06;100.00;99534.50;4224805;34;20820;-71
2022/11/26 06:55:26;;;;;;;111.03;29.60;;;;;;;4.41;100.00;99579.84;4215789;34;20258;-71
2022/11/26 06:57:52;;;;;;;121.57;27.40;;;;;;;4.23;100.00;99538.53;4210643;34;20400;-71
2022/11/26 07:00:19;;;;;;;101.05;28.30;;;;;;;4.28;100.00;99557.41;4224257;34;20064;-70
2022/11/26 07:02:45;;;;;;;126.47;28.12;;;;;;;4.45;100.00;99589.09;4224120;33;20104;-71
2022/11/26 07:05:14;;;;;;;106.97;27.00;;;;;;;4.40;100.00;99586.19;4231516;33;20058;-71
2022/11/26 07:07:40;;;;;;;111.32;27.80;;;;;;;4.39;100.00;99589.87;4246955;33;20105;-70
2022/11/26 07:10:07;;;;;;;110.45;29.08;;;;;;;4.30;100.00;99595.34;4252149;33;20061;-70
2022/11/26 07:12:33;;;;;;;136.00;31.85;;;;;;;4.37;100.00;99600.72;4251297;33;20056;-69
2022/11/26 07:15:00;;;;;;;99.87;27.92;;;;;;;4.43;100.00;99604.47;4252277;33;20384;-72
2022/11/26 07:17:27;;;;;;;125.87;27.33;;;;;;;4.41;100.00;99601.19;4252843;33;20038;-70
2022/11/26 07:19:54;;;;;;;91.10;24.37;;;;;;;4.52;100.00;99608.62;4251729;33;20042;-70
2022/11/26 07:22:20;;;;;;;97.60;25.02;;;;;;;4.45;100.00;99607.75;4251885;33;20071;-70
2022/11/26 07:24:47;;;;;;;97.35;27.35;;;;;;;4.33;100.00;99618.97;4249290;33;20056;-72
2022/11/26 07:27:13;;;;;;;111.47;25.65;;;;;;;4.24;100.00;99625.44;4252539;33;20077;-69
2022/11/26 07:29:40;;;;;;;86.63;21.55;;;;;;;4.04;100.00;99613.81;4252548;33;20095;-70
2022/11/26 07:32:06;;;;;;;137.30;33.45;;;;;;;3.94;100.00;99614.97;4252612;33;20462;-70
2022/11/26 07:34:33;;;;;;;239.45;32.35;;;;;;;3.78;100.00;99618.75;4252290;33;20052;-71
2022/11/26 07:37:00;;;;;;;112.75;26.27;;;;;;;3.86;100.00;99623.12;4231831;33;20117;-70
2022/11/26 07:39:26;;;;;;;113.43;25.45;;;;;;;3.81;100.00;99620.19;4238398;33;20420;-71
2022/11/26 07:41:53;;;;;;;98.30;21.42;;;;;;;3.73;100.00;99623.78;4237591;33;20050;-71
2022/11/26 07:44:19;;;;;;;111.40;21.27;;;;;;;3.49;100.00;99621.50;4237915;33;20047;-71
2022/11/26 07:46:45;;;;;;;86.28;21.12;;;;;;;3.18;100.00;99594.16;4237819;33;20157;-71
2022/11/26 07:49:12;;;;;;;90.95;20.17;;;;;;;3.28;100.00;99600.00;4234649;33;20064;-71
2022/11/26 07:51:39;;;;;;;85.05;19.12;;;;;;;3.20;100.00;99597.44;4237836;33;20132;-72
2022/11/26 07:54:07;;;;;;;144.57;19.33;;;;;;;3.14;100.00;99614.16;4238147;33;20064;-71
2022/11/26 07:56:33;;;;;;;83.62;19.45;;;;;;;3.32;100.00;99628.91;4237707;33;20408;-71
2022/11/26 07:59:01;;;;;;;150.73;21.20;;;;;;;3.28;100.00;99628.44;4238232;33;20043;-71
2022/11/26 08:01:28;;;;;;;84.00;19.90;;;;;;;3.28;100.00;99647.91;4236102;33;20447;-71
2022/11/26 08:03:56;;;;;;;168.18;23.60;;;;;;;2.95;100.00;99609.44;4237926;33;20054;-71
2022/11/26 08:06:26;;;;;;;82.47;20.05;;;;;;;3.14;100.00;99638.09;4214609;34;20047;-71
2022/11/26 08:08:52;;;;;;;160.60;30.20;;;;;;;2.93;100.00;99606.97;4215724;34;20042;-70
2022/11/26 08:11:22;;;;;;;111.72;25.15;;;;;;;3.14;100.00;99651.41;4216783;34;20027;-71
2022/11/26 08:13:52;;;;;;;100.68;22.83;;;;;;;3.36;100.00;99643.50;4225084;33;20054;-72
2022/11/26 08:16:19;;;;;;;119.15;24.37;;;;;;;3.42;100.00;99648.06;4237679;33;20035;-71
2022/11/26 08:18:46;;;;;;;118.20;23.02;;;;;;;3.31;100.00;99652.03;4237705;33;20056;-71
2022/11/26 08:21:13;;;;;;;107.82;23.12;;;;;;;3.13;100.00;99612.53;4208188;34;20047;-71
2022/11/26 08:23:40;;;;;;;115.18;25.92;;;;;;;3.30;100.00;99660.22;4209151;34;20073;-71
2022/11/26 08:26:11;;;;;;;99.32;22.67;;;;;;;3.30;100.00;99628.25;4209866;34;20171;-71
2022/11/26 08:28:46;;;;;;;92.10;20.73;;;;;;;3.32;100.00;99658.19;4209645;34;20137;-71
2022/11/26 08:31:15;;;;;;;70.82;18.05;;;;;;;3.38;100.00;99660.09;4207579;34;20070;-69
2022/11/26 08:33:42;;;;;;;96.12;19.45;;;;;;;3.23;100.00;99660.13;4209385;34;20234;-71
2022/11/26 08:36:10;;;;;;;87.00;23.45;;;;;;;3.30;100.00;99668.19;4207916;34;20027;-71
2022/11/26 08:38:38;;;;;;;77.50;17.87;;;;;;;3.43;100.00;99677.16;4223035;34;20038;-71
2022/11/26 08:41:09;;;;;;;87.78;20.52;;;;;;;3.34;100.00;99677.47;4222406;34;20038;-71
2022/11/26 08:43:37;;;;;;;114.95;18.45;;;;;;;3.24;100.00;99665.28;4223312;34;20169;-71
2022/11/26 08:46:04;;;;;;;112.65;20.12;;;;;;;3.45;100.00;99690.28;4221766;34;20077;-72
2022/11/26 08:48:32;;;;;;;116.70;19.83;;;;;;;3.56;100.00;99692.47;4222936;34;20104;-71
2022/11/26 08:51:03;;;;;;;76.32;20.85;;;;;;;3.53;100.00;99690.19;4222066;33;20034;-71
2022/11/26 08:53:32;;;;;;;73.95;19.33;;;;;;;3.50;100.00;99693.22;4251418;33;20066;-72
2022/11/26 08:56:03;;;;;;;120.80;23.60;;;;;;;3.47;100.00;99677.62;4251201;33;20421;-70
2022/11/26 08:58:38;;;;;;;102.72;19.52;;;;;;;3.70;100.00;99697.94;4250626;33;20428;-71
2022/11/26 09:01:19;;;;;;;112.03;19.27;;;;;;;3.75;100.00;99711.50;4250059;33;20042;-70
2022/11/26 09:03:50;;;;;;;87.62;18.35;;;;;;;3.73;100.00;99702.88;4251299;33;20460;-71
2022/11/26 09:06:19;;;;;;;74.95;17.87;;;;;;;3.63;100.00;99688.03;4250907;33;20054;-71
2022/11/26 09:11:33;;;;;;;76.03;19.15;;;;;;;3.67;100.00;99719.63;4260053;33;20075;-71
2022/11/26 09:14:01;;;;;;;87.00;18.75;;;;;;;3.81;100.00;99721.41;4267765;33;20046;-72
2022/11/26 09:16:27;;;;;;;89.35;18.23;;;;;;;3.66;100.00;99718.78;4264962;33;20045;-70
2022/11/26 09:18:54;;;;;;;184.32;20.58;;;;;;;3.58;100.00;99717.06;4267350;33;20057;-70
2022/11/26 09:21:21;;;;;;;86.63;17.67;;;;;;;3.76;100.00;99718.50;4235907;33;20051;-70
2022/11/26 09:23:48;;;;;;;170.68;26.25;;;;;;;3.70;100.00;99721.91;4236769;33;20066;-71
2022/11/26 09:26:14;;;;;;;112.60;20.73;;;;;;;3.73;100.00;99729.53;4234063;33;20058;-70
2022/11/26 09:28:41;;;;;;;65.00;18.27;;;;;;;3.78;100.00;99717.31;4234251;33;20062;-72
2022/11/26 09:31:07;;;;;;;82.75;16.87;;;;;;;3.61;100.00;99695.38;4235163;33;20524;-71
2022/11/26 09:33:33;;;;;;;81.60;19.25;;;;;;;3.78;100.00;99727.09;4235067;33;20070;-71
2022/11/26 09:36:05;;;;;;;69.62;19.05;;;;;;;3.75;100.00;99727.47;4234562;33;20189;-71
2022/11/26 09:38:33;;;;;;;90.43;18.70;;;;;;;3.86;100.00;99735.00;4233539;33;20166;-70
2022/11/26 09:41:21;;;;;;;75.78;17.83;;;;;;;3.75;100.00;99724.81;4230572;33;20042;-72
2022/11/26 09:43:50;;;;;;;93.53;21.35;;;;;;;3.80;100.00;99741.09;4235252;33;20054;-71
2022/11/26 09:46:27;;;;;;;105.37;22.30;;;;;;;3.89;100.00;99733.78;4233903;33;20034;-70
2022/11/26 09:48:59;;;;;;;85.75;20.62;;;;;;;3.82;100.00;99701.75;4234539;33;20094;-71
2022/11/26 09:51:27;;;;;;;87.43;17.45;;;;;;;3.87;100.00;99747.28;4236813;33;20078;-72
2022/11/26 09:53:55;;;;;;;88.72;21.33;;;;;;;3.66;100.00;99739.28;4264648;33;20046;-70
2022/11/26 09:56:26;;;;;;;80.55;19.60;;;;;;;3.48;100.00;99742.31;4265116;33;20449;-71
2022/11/26 09:59:00;;;;;;;79.75;18.70;;;;;;;3.37;100.00;99736.47;4266900;33;20325;-72
2022/11/26 10:01:29;;;;;;;66.00;17.33;;;;;;;3.56;100.00;99748.38;4265055;33;20564;-72
2022/11/26 10:03:57;;;;;;;101.25;20.12;;;;;;;3.32;100.00;99716.72;4267810;33;20399;-72
2022/11/26 10:06:46;;;;;;;81.45;18.23;;;;;;;3.63;100.00;99749.28;4267656;33;20441;-71
2022/11/26 10:09:39;;;;;;;70.95;18.12;;;;;;;3.60;100.00;99746.16;4269389;33;20089;-71
2022/11/26 10:12:27;;;;;;;67.78;19.52;;;;;;;3.85;100.00;99746.66;4268366;33;20798;-71
2022/11/26 10:15:19;;;;;;;72.12;19.25;;;;;;;3.81;100.00;99740.06;4268260;33;20050;-71
2022/11/26 10:18:07;;;;;;;49.22;15.77;;;;;;;3.99;100.00;99745.78;4267957;33;20042;-70
2022/11/26 10:21:08;;;;;;;88.43;18.75;;;;;;;3.45;100.00;99711.59;4267066;33;20479;-71
2022/11/26 10:24:03;;;;;;;58.92;17.83;;;;;;;3.62;100.00;99747.66;4249165;33;20081;-71
2022/11/26 10:26:37;;;;;;;91.78;18.77;;;;;;;3.64;100.00;99745.62;4227405;33;20037;-71
2022/11/26 10:29:27;;;;;;;52.97;16.52;;;;;;;3.54;100.00;99753.09;4249604;33;20592;-71
2022/11/26 10:32:09;;;;;;;67.10;19.30;;;;;;;3.22;100.00;99749.81;4245376;33;20516;-71
2022/11/26 10:34:49;;;;;;;74.32;13.88;;;;;;;3.33;100.00;99761.81;4250295;33;20068;-70
2022/11/26 10:37:18;;;;;;;61.67;15.40;;;;;;;2.98;100.00;99736.75;4249164;33;20056;-70
2022/11/26 10:40:18;;;;;;;48.50;14.87;;;;;;;3.03;100.00;99772.47;4235691;33;20046;-70
2022/11/26 10:42:54;;;;;;;57.60;16.75;;;;;;;3.15;100.00;99770.16;4225979;33;20055;-70
2022/11/26 10:45:33;;;;;;;72.00;18.83;;;;;;;3.18;100.00;99769.81;4225728;33;20496;-71
2022/11/26 10:48:29;;;;;;;52.25;17.12;;;;;;;2.84;100.00;99736.56;4229646;33;20102;-71
2022/11/26 10:50:58;;;;;;;57.10;16.10;;;;;;;2.79;100.00;99743.44;4228267;33;20078;-71
2022/11/26 10:53:28;;;;;;;49.15;14.55;;;;;;;2.65;100.00;99742.41;4232525;33;20080;-72
2022/11/26 10:55:58;;;;;;;67.53;16.52;;;;;;;2.74;100.00;99773.22;4231508;33;20026;-71
2022/11/26 10:58:30;;;;;;;48.07;13.93;;;;;;;2.96;100.00;99770.72;4236636;33;20064;-71
2022/11/26 11:01:00;;;;;;;66.90;18.83;;;;;;;3.07;100.00;99772.91;4237972;33;20101;-71
2022/11/26 11:03:31;;;;;;;72.35;16.08;;;;;;;2.89;100.00;99765.28;4238092;33;20064;-71
2022/11/26 11:06:18;;;;;;;53.10;14.68;;;;;;;2.95;100.00;99774.38;4237515;33;20033;-72
2022/11/26 11:08:47;;;;;;;59.92;16.58;;;;;;;3.00;100.00;99771.97;4238180;33;20043;-71
2022/11/26 11:11:28;;;;;;;56.40;13.30;;;;;;;2.74;100.00;99746.62;4237044;33;20030;-72
2022/11/26 11:13:56;;;;;;;54.05;16.70;;;;;;;3.10;100.00;99777.88;4203753;34;20166;-71
2022/11/26 11:16:28;;;;;;;64.72;14.32;;;;;;;2.89;100.00;99771.44;4230019;33;20211;-71
2022/11/26 11:19:02;;;;;;;71.32;17.02;;;;;;;2.97;100.00;99782.97;4221651;33;20053;-71
2022/11/26 11:21:34;;;;;;;79.50;17.85;;;;;;;3.05;100.00;99780.28;4220085;33;20043;-70
2022/11/26 11:24:12;;;;;;;60.72;15.80;;;;;;;2.79;100.00;99765.53;4223555;33;20899;-71
2022/11/26 11:26:42;;;;;;;69.57;18.08;;;;;;;2.74;100.00;99754.63;4231517;33;20034;-70
2022/11/26 11:29:27;;;;;;;71.65;18.00;;;;;;;2.98;100.00;99787.31;4236991;33;20060;-71
2022/11/26 11:31:56;;;;;;;70.37;17.73;;;;;;;3.15;100.00;99786.13;4236270;33;20905;-71
2022/11/26 11:34:26;;;;;;;69.15;17.62;;;;;;;3.01;100.00;99797.59;4235061;33;20085;-71
2022/11/26 11:37:16;;;;;;;130.98;32.05;;;;;;;3.17;100.00;99793.94;4236658;33;20078;-70
2022/11/26 11:39:44;;;;;;;74.90;17.20;;;;;;;3.24;100.00;99795.69;4235255;33;20076;-71
2022/11/26 11:42:21;;;;;;;53.38;16.85;;;;;;;2.66;100.00;99765.34;4236842;33;20068;-70
2022/11/26 11:44:51;;;;;;;72.32;20.75;;;;;;;2.95;100.00;99793.00;4220737;34;20080;-70
2022/11/26 11:47:26;;;;;;;69.05;18.30;;;;;;;2.91;100.00;99774.72;4222049;34;20110;-70
2022/11/26 11:50:10;;;;;;;80.35;18.83;;;;;;;2.95;100.00;99785.81;4221758;34;20089;-71
2022/11/26 11:52:58;;;;;;;93.87;19.70;;;;;;;2.62;100.00;99767.53;4220309;34;20031;-69
2022/11/26 11:56:13;;;;;;;99.95;20.85;;;;;;;2.76;100.00;99808.47;4220382;34;20072;-70
2022/11/26 11:59:07;;;;;;;111.93;19.12;;;;;;;2.81;100.00;99800.78;4163461;34;20052;-71
2022/11/26 12:01:42;;;;;;;92.97;18.52;;;;;;;2.84;100.00;99816.38;4346516;28;20073;-71
2022/11/26 12:04:46;;;;;;;119.00;22.92;;;;;;;2.64;100.00;99809.91;4219324;34;20080;-71
2022/11/26 12:07:38;;;;;;;96.40;20.60;;;;;;;2.65;100.00;99807.06;4218534;34;20460;-71
2022/11/26 12:10:24;;;;;;;88.93;18.75;;;;;;;2.70;100.00;99814.50;4218733;33;20058;-71
2022/11/26 12:12:57;;;;;;;63.22;17.75;;;;;;;2.29;100.00;99770.44;4218709;34;20051;-71
2022/11/26 12:15:50;;;;;;;84.37;19.77;;;;;;;2.46;100.00;99808.38;4224145;33;20096;-70
2022/11/26 12:18:41;;;;;;;203.52;21.83;;;;;;;2.17;100.00;99788.66;4223265;33;20115;-71
2022/11/26 12:21:11;;;;;;;76.37;19.27;;;;;;;2.21;100.00;99820.19;4213280;33;20065;-71
2022/11/26 12:23:59;;;;;;;103.25;20.58;;;;;;;2.06;100.00;99810.31;4219183;33;20183;-70
2022/11/26 12:26:33;;;;;;;87.47;17.83;;;;;;;1.89;100.00;99768.91;4218621;33;20390;-70
2022/11/26 12:29:21;;;;;;;87.28;19.17;;;;;;;2.07;100.00;99824.41;4225707;33;20504;-71
2022/11/26 12:31:53;;;;;;;57.67;18.50;;;;;;;2.16;100.00;99824.19;4265065;33;20041;-72
2022/11/26 12:34:31;;;;;;;57.62;18.52;;;;;;;2.06;100.00;99818.28;4264074;33;20176;-71
2022/11/26 12:37:02;;;;;;;64.95;21.55;;;;;;;2.12;100.00;99822.03;4264021;33;20091;-72
2022/11/26 12:40:07;;;;;;;53.38;16.52;;;;;;;2.23;100.00;99826.13;4264793;33;20422;-71
2022/11/26 12:43:14;;;;;;;53.50;17.37;;;;;;;2.29;100.00;99828.09;4280842;33;20041;-71
2022/11/26 12:45:54;;;;;;;60.20;16.42;;;;;;;2.34;100.00;99836.34;4281134;33;20061;-70
2022/11/26 12:48:20;;;;;;;44.95;14.43;;;;;;;2.23;100.00;99832.28;4277233;33;20046;-71
2022/11/26 12:51:21;;;;;;;51.75;17.67;;;;;;;1.81;100.00;99831.66;4276343;33;20077;-70
2022/11/26 12:54:05;;;;;;;55.90;18.12;;;;;;;1.94;100.00;99827.63;4192654;34;20377;-70
2022/11/26 12:56:40;;;;;;;57.92;16.92;;;;;;;1.78;100.00;99789.53;4194058;34;20038;-70
2022/11/26 12:59:23;;;;;;;36.30;13.27;;;;;;;1.62;100.00;99806.34;4193591;34;20091;-70
2022/11/26 13:01:50;;;;;;;39.15;13.48;;;;;;;1.90;100.00;99844.91;4192904;34;20149;-71
2022/11/26 13:04:19;;;;;;;49.90;16.92;;;;;;;1.28;100.00;99819.94;4204993;34;20076;-72
2022/11/26 13:07:17;;;;;;;48.53;16.87;;;;;;;1.66;100.00;99849.34;4194017;34;20098;-71
2022/11/26 13:10:17;;;;;;;52.15;17.77;;;;;;;1.57;100.00;99856.50;4194584;34;20473;-71
2022/11/26 13:12:53;;;;;;;42.78;13.73;;;;;;;1.41;100.00;99856.53;4196044;34;20047;-74
2022/11/26 13:15:27;;;;;;;62.70;19.33;;;;;;;1.09;100.00;99859.06;4193688;34;20050;-73
2022/11/26 13:17:59;;;;;;;62.38;17.77;;;;;;;1.28;100.00;99867.69;4193168;34;20043;-73
2022/11/26 13:20:42;;;;;;;64.97;20.60;;;;;;;1.48;100.00;99862.00;4194370;34;20089;-73
2022/11/26 13:23:34;;;;;;;51.53;15.10;;;;;;;1.34;100.00;99871.47;4193684;34;20628;-74
2022/11/26 13:26:36;;;;;;;35.70;13.95;;;;;;;1.12;100.00;99873.00;4194303;34;20051;-73
2022/11/26 13:29:26;;;;;;;57.00;15.23;;;;;;;1.21;100.00;99877.31;4158785;33;20044;-73
2022/11/26 13:32:04;;;;;;;38.55;11.77;;;;;;;1.13;100.00;99853.44;4263248;33;20054;-73
2022/11/26 13:34:52;;;;;;;60.28;17.45;;;;;;;0.80;100.00;99890.56;4279772;33;20077;-74
2022/11/26 13:37:19;;;;;;;49.40;14.30;;;;;;;0.80;100.00;99885.28;4279039;33;20060;-73
2022/11/26 13:40:09;;;;;;;22.45;9.10;;;;;;;0.69;100.00;99887.25;4282484;33;20081;-74